sensor_id;sensor_type;location;lat;lon;timestamp;P1;durP1;ratioP1;P2;durP2;ratioP2
12719;SDS011;6424;48.520;11.228;2023-05-19T00:00:23;5.17;;;3.37;;
12719;SDS011;6424;48.520;11.228;2023-05-19T00:03:03;6.37;;;3.27;;
12719;SDS011;6424;48.520;11.228;2023-05-19T00:05:44;7.43;;;3.33;;
12719;SDS011;6424;48.520;11.228;2023-05-19T00:08:12;7.03;;;3.33;;
12719;SDS011;6424;48.520;11.228;2023-05-19T00:10:56;5.70;;;3.40;;
12719;SDS011;6424;48.520;11.228;2023-05-19T00:13:37;8.97;;;3.80;;
12719;SDS011;6424;48.520;11.228;2023-05-19T00:16:18;7.87;;;3.40;;
12719;SDS011;6424;48.520;11.228;2023-05-19T00:19:01;9.83;;;3.70;;
12719;SDS011;6424;48.520;11.228;2023-05-19T00:21:42;5.80;;;3.23;;
12719;SDS011;6424;48.520;11.228;2023-05-19T00:24:23;4.40;;;3.17;;
12719;SDS011;6424;48.520;11.228;2023-05-19T00:27:04;6.63;;;3.70;;
12719;SDS011;6424;48.520;11.228;2023-05-19T00:29:45;8.60;;;3.30;;
12719;SDS011;6424;48.520;11.228;2023-05-19T00:32:25;5.17;;;2.93;;
12719;SDS011;6424;48.520;11.228;2023-05-19T00:35:06;9.53;;;3.83;;
12719;SDS011;6424;48.520;11.228;2023-05-19T00:37:47;7.17;;;3.37;;
12719;SDS011;6424;48.520;11.228;2023-05-19T00:40:13;7.27;;;3.10;;
12719;SDS011;6424;48.520;11.228;2023-05-19T00:42:40;5.93;;;3.27;;
12719;SDS011;6424;48.520;11.228;2023-05-19T00:45:21;6.27;;;3.50;;
12719;SDS011;6424;48.520;11.228;2023-05-19T00:48:02;6.97;;;3.30;;
12719;SDS011;6424;48.520;11.228;2023-05-19T00:50:43;5.00;;;3.33;;
12719;SDS011;6424;48.520;11.228;2023-05-19T00:53:24;5.17;;;3.23;;
12719;SDS011;6424;48.520;11.228;2023-05-19T00:56:05;7.33;;;3.50;;
12719;SDS011;6424;48.520;11.228;2023-05-19T00:58:46;6.97;;;3.23;;
12719;SDS011;6424;48.520;11.228;2023-05-19T01:01:29;8.67;;;3.43;;
12719;SDS011;6424;48.520;11.228;2023-05-19T01:04:11;9.17;;;3.30;;
12719;SDS011;6424;48.520;11.228;2023-05-19T01:06:41;5.63;;;3.57;;
12719;SDS011;6424;48.520;11.228;2023-05-19T01:09:22;8.77;;;3.63;;
12719;SDS011;6424;48.520;11.228;2023-05-19T01:12:03;8.93;;;3.60;;
12719;SDS011;6424;48.520;11.228;2023-05-19T01:14:44;7.53;;;3.43;;
12719;SDS011;6424;48.520;11.228;2023-05-19T01:17:18;8.53;;;3.20;;
12719;SDS011;6424;48.520;11.228;2023-05-19T01:20:26;7.47;;;3.50;;
12719;SDS011;6424;48.520;11.228;2023-05-19T01:23:24;4.93;;;2.90;;
12719;SDS011;6424;48.520;11.228;2023-05-19T01:29:41;9.33;;;3.50;;
12719;SDS011;6424;48.520;11.228;2023-05-19T01:32:40;5.83;;;2.97;;
12719;SDS011;6424;48.520;11.228;2023-05-19T01:35:21;7.43;;;3.40;;
12719;SDS011;6424;48.520;11.228;2023-05-19T01:38:04;6.67;;;3.50;;
12719;SDS011;6424;48.520;11.228;2023-05-19T01:40:48;8.67;;;3.23;;
12719;SDS011;6424;48.520;11.228;2023-05-19T01:43:30;7.23;;;3.17;;
12719;SDS011;6424;48.520;11.228;2023-05-19T01:46:12;6.97;;;3.30;;
12719;SDS011;6424;48.520;11.228;2023-05-19T01:48:54;7.10;;;3.27;;
12719;SDS011;6424;48.520;11.228;2023-05-19T01:51:35;7.90;;;3.83;;
12719;SDS011;6424;48.520;11.228;2023-05-19T01:54:16;6.23;;;3.50;;
12719;SDS011;6424;48.520;11.228;2023-05-19T01:56:59;8.03;;;3.43;;
12719;SDS011;6424;48.520;11.228;2023-05-19T01:59:58;4.27;;;3.00;;
12719;SDS011;6424;48.520;11.228;2023-05-19T02:02:52;5.87;;;3.13;;
12719;SDS011;6424;48.520;11.228;2023-05-19T02:05:37;7.87;;;4.23;;
12719;SDS011;6424;48.520;11.228;2023-05-19T02:08:29;6.07;;;3.40;;
12719;SDS011;6424;48.520;11.228;2023-05-19T02:11:24;6.63;;;3.77;;
12719;SDS011;6424;48.520;11.228;2023-05-19T02:14:14;8.47;;;3.33;;
12719;SDS011;6424;48.520;11.228;2023-05-19T02:16:59;7.00;;;3.90;;
12719;SDS011;6424;48.520;11.228;2023-05-19T02:19:43;5.40;;;3.40;;
12719;SDS011;6424;48.520;11.228;2023-05-19T02:22:24;6.67;;;3.33;;
12719;SDS011;6424;48.520;11.228;2023-05-19T02:25:05;6.60;;;3.07;;
12719;SDS011;6424;48.520;11.228;2023-05-19T02:27:47;14.67;;;3.90;;
12719;SDS011;6424;48.520;11.228;2023-05-19T02:30:28;9.07;;;3.60;;
12719;SDS011;6424;48.520;11.228;2023-05-19T02:33:10;5.83;;;3.53;;
12719;SDS011;6424;48.520;11.228;2023-05-19T02:35:51;7.07;;;3.50;;
12719;SDS011;6424;48.520;11.228;2023-05-19T02:38:32;5.83;;;3.60;;
12719;SDS011;6424;48.520;11.228;2023-05-19T02:41:13;7.13;;;3.73;;
12719;SDS011;6424;48.520;11.228;2023-05-19T02:43:53;5.87;;;3.30;;
12719;SDS011;6424;48.520;11.228;2023-05-19T02:46:34;7.10;;;3.70;;
12719;SDS011;6424;48.520;11.228;2023-05-19T02:49:15;4.83;;;3.20;;
12719;SDS011;6424;48.520;11.228;2023-05-19T02:51:56;8.97;;;4.07;;
12719;SDS011;6424;48.520;11.228;2023-05-19T02:54:37;5.00;;;3.37;;
12719;SDS011;6424;48.520;11.228;2023-05-19T02:57:17;5.83;;;3.27;;
12719;SDS011;6424;48.520;11.228;2023-05-19T02:59:58;8.07;;;3.43;;
12719;SDS011;6424;48.520;11.228;2023-05-19T03:02:39;5.70;;;3.37;;
12719;SDS011;6424;48.520;11.228;2023-05-19T03:05:20;5.00;;;3.33;;
12719;SDS011;6424;48.520;11.228;2023-05-19T03:08:01;5.93;;;3.53;;
12719;SDS011;6424;48.520;11.228;2023-05-19T03:10:41;5.10;;;3.70;;
12719;SDS011;6424;48.520;11.228;2023-05-19T03:13:22;6.93;;;3.87;;
12719;SDS011;6424;48.520;11.228;2023-05-19T03:16:03;6.40;;;4.00;;
12719;SDS011;6424;48.520;11.228;2023-05-19T03:18:47;6.60;;;3.30;;
12719;SDS011;6424;48.520;11.228;2023-05-19T03:21:27;6.97;;;3.60;;
12719;SDS011;6424;48.520;11.228;2023-05-19T03:24:09;5.90;;;3.53;;
12719;SDS011;6424;48.520;11.228;2023-05-19T03:26:50;5.37;;;3.90;;
12719;SDS011;6424;48.520;11.228;2023-05-19T03:29:31;6.50;;;4.30;;
12719;SDS011;6424;48.520;11.228;2023-05-19T03:32:12;7.67;;;3.77;;
12719;SDS011;6424;48.520;11.228;2023-05-19T03:34:52;10.73;;;4.40;;
12719;SDS011;6424;48.520;11.228;2023-05-19T03:37:33;6.40;;;3.87;;
12719;SDS011;6424;48.520;11.228;2023-05-19T03:40:14;7.53;;;3.77;;
12719;SDS011;6424;48.520;11.228;2023-05-19T03:42:55;7.17;;;3.77;;
12719;SDS011;6424;48.520;11.228;2023-05-19T03:45:36;7.07;;;3.63;;
12719;SDS011;6424;48.520;11.228;2023-05-19T03:48:16;7.03;;;3.70;;
12719;SDS011;6424;48.520;11.228;2023-05-19T03:50:42;9.00;;;3.53;;
12719;SDS011;6424;48.520;11.228;2023-05-19T03:53:23;5.77;;;3.43;;
12719;SDS011;6424;48.520;11.228;2023-05-19T03:56:05;8.00;;;3.93;;
12719;SDS011;6424;48.520;11.228;2023-05-19T03:58:46;5.73;;;3.30;;
12719;SDS011;6424;48.520;11.228;2023-05-19T04:01:28;5.10;;;3.57;;
12719;SDS011;6424;48.520;11.228;2023-05-19T04:04:09;7.30;;;4.00;;
12719;SDS011;6424;48.520;11.228;2023-05-19T04:06:35;7.70;;;3.83;;
12719;SDS011;6424;48.520;11.228;2023-05-19T04:09:16;7.93;;;3.90;;
12719;SDS011;6424;48.520;11.228;2023-05-19T04:11:58;7.27;;;4.27;;
12719;SDS011;6424;48.520;11.228;2023-05-19T04:14:39;9.13;;;5.37;;
12719;SDS011;6424;48.520;11.228;2023-05-19T04:17:19;6.10;;;4.90;;
12719;SDS011;6424;48.520;11.228;2023-05-19T04:20:02;7.97;;;4.40;;
12719;SDS011;6424;48.520;11.228;2023-05-19T04:22:30;6.70;;;4.23;;
12719;SDS011;6424;48.520;11.228;2023-05-19T04:25:11;6.70;;;3.90;;
12719;SDS011;6424;48.520;11.228;2023-05-19T04:27:52;7.83;;;4.10;;
12719;SDS011;6424;48.520;11.228;2023-05-19T04:30:36;5.40;;;3.77;;
12719;SDS011;6424;48.520;11.228;2023-05-19T04:33:17;6.83;;;3.70;;
12719;SDS011;6424;48.520;11.228;2023-05-19T04:35:59;7.63;;;3.87;;
12719;SDS011;6424;48.520;11.228;2023-05-19T04:38:44;7.97;;;4.03;;
12719;SDS011;6424;48.520;11.228;2023-05-19T04:41:25;5.37;;;3.80;;
12719;SDS011;6424;48.520;11.228;2023-05-19T04:44:06;5.67;;;3.90;;
12719;SDS011;6424;48.520;11.228;2023-05-19T04:46:48;6.97;;;4.00;;
12719;SDS011;6424;48.520;11.228;2023-05-19T04:49:33;6.63;;;3.47;;
12719;SDS011;6424;48.520;11.228;2023-05-19T04:52:06;7.67;;;4.23;;
12719;SDS011;6424;48.520;11.228;2023-05-19T04:54:49;7.77;;;4.10;;
12719;SDS011;6424;48.520;11.228;2023-05-19T04:57:30;5.83;;;4.00;;
12719;SDS011;6424;48.520;11.228;2023-05-19T05:00:11;7.17;;;4.30;;
12719;SDS011;6424;48.520;11.228;2023-05-19T05:02:53;7.23;;;4.30;;
12719;SDS011;6424;48.520;11.228;2023-05-19T05:05:36;7.87;;;3.80;;
12719;SDS011;6424;48.520;11.228;2023-05-19T05:08:17;6.30;;;4.13;;
12719;SDS011;6424;48.520;11.228;2023-05-19T05:10:48;6.43;;;4.37;;
12719;SDS011;6424;48.520;11.228;2023-05-19T05:13:16;6.33;;;4.10;;
12719;SDS011;6424;48.520;11.228;2023-05-19T05:15:58;8.33;;;4.93;;
12719;SDS011;6424;48.520;11.228;2023-05-19T05:18:39;8.87;;;5.20;;
12719;SDS011;6424;48.520;11.228;2023-05-19T05:21:20;8.13;;;5.10;;
12719;SDS011;6424;48.520;11.228;2023-05-19T05:24:02;7.97;;;4.83;;
12719;SDS011;6424;48.520;11.228;2023-05-19T05:26:29;7.47;;;4.10;;
12719;SDS011;6424;48.520;11.228;2023-05-19T05:28:55;7.50;;;4.53;;
12719;SDS011;6424;48.520;11.228;2023-05-19T05:31:36;6.47;;;4.40;;
12719;SDS011;6424;48.520;11.228;2023-05-19T05:34:02;7.00;;;5.07;;
12719;SDS011;6424;48.520;11.228;2023-05-19T05:36:42;7.07;;;4.40;;
12719;SDS011;6424;48.520;11.228;2023-05-19T05:39:08;7.80;;;4.60;;
12719;SDS011;6424;48.520;11.228;2023-05-19T05:41:49;10.23;;;4.83;;
12719;SDS011;6424;48.520;11.228;2023-05-19T05:44:30;6.47;;;4.73;;
12719;SDS011;6424;48.520;11.228;2023-05-19T05:47:11;10.00;;;5.40;;
12719;SDS011;6424;48.520;11.228;2023-05-19T05:49:52;7.10;;;4.70;;
12719;SDS011;6424;48.520;11.228;2023-05-19T05:52:18;9.57;;;4.77;;
12719;SDS011;6424;48.520;11.228;2023-05-19T05:54:46;7.70;;;5.20;;
12719;SDS011;6424;48.520;11.228;2023-05-19T05:57:27;7.70;;;5.00;;
12719;SDS011;6424;48.520;11.228;2023-05-19T06:00:09;9.80;;;5.10;;
12719;SDS011;6424;48.520;11.228;2023-05-19T06:02:56;8.27;;;5.07;;
12719;SDS011;6424;48.520;11.228;2023-05-19T06:05:38;7.63;;;5.10;;
12719;SDS011;6424;48.520;11.228;2023-05-19T06:08:04;10.13;;;5.70;;
12719;SDS011;6424;48.520;11.228;2023-05-19T06:10:45;15.90;;;9.37;;
12719;SDS011;6424;48.520;11.228;2023-05-19T06:13:26;14.00;;;7.67;;
12719;SDS011;6424;48.520;11.228;2023-05-19T06:16:07;13.33;;;7.63;;
12719;SDS011;6424;48.520;11.228;2023-05-19T06:18:48;10.27;;;5.47;;
12719;SDS011;6424;48.520;11.228;2023-05-19T06:21:29;6.83;;;4.83;;
12719;SDS011;6424;48.520;11.228;2023-05-19T06:23:55;8.03;;;5.60;;
12719;SDS011;6424;48.520;11.228;2023-05-19T06:26:36;8.47;;;5.10;;
12719;SDS011;6424;48.520;11.228;2023-05-19T06:29:02;7.33;;;5.07;;
12719;SDS011;6424;48.520;11.228;2023-05-19T06:31:42;7.87;;;4.93;;
12719;SDS011;6424;48.520;11.228;2023-05-19T06:34:23;9.07;;;5.50;;
12719;SDS011;6424;48.520;11.228;2023-05-19T06:37:04;8.50;;;4.60;;
12719;SDS011;6424;48.520;11.228;2023-05-19T06:39:30;8.53;;;5.10;;
12719;SDS011;6424;48.520;11.228;2023-05-19T06:42:11;9.13;;;4.53;;
12719;SDS011;6424;48.520;11.228;2023-05-19T06:44:52;11.53;;;6.23;;
12719;SDS011;6424;48.520;11.228;2023-05-19T06:47:33;9.20;;;5.10;;
12719;SDS011;6424;48.520;11.228;2023-05-19T06:50:13;10.50;;;5.20;;
12719;SDS011;6424;48.520;11.228;2023-05-19T06:52:54;8.13;;;4.90;;
12719;SDS011;6424;48.520;11.228;2023-05-19T06:55:36;7.07;;;4.73;;
12719;SDS011;6424;48.520;11.228;2023-05-19T06:58:17;9.13;;;5.40;;
12719;SDS011;6424;48.520;11.228;2023-05-19T07:00:57;8.97;;;5.20;;
12719;SDS011;6424;48.520;11.228;2023-05-19T07:03:38;8.17;;;5.13;;
12719;SDS011;6424;48.520;11.228;2023-05-19T07:06:19;6.87;;;4.87;;
12719;SDS011;6424;48.520;11.228;2023-05-19T07:09:00;8.03;;;4.90;;
12719;SDS011;6424;48.520;11.228;2023-05-19T07:11:41;10.27;;;5.50;;
12719;SDS011;6424;48.520;11.228;2023-05-19T07:14:06;7.93;;;5.10;;
12719;SDS011;6424;48.520;11.228;2023-05-19T07:16:47;7.97;;;5.40;;
12719;SDS011;6424;48.520;11.228;2023-05-19T07:19:28;7.60;;;5.10;;
12719;SDS011;6424;48.520;11.228;2023-05-19T07:21:54;10.17;;;5.60;;
12719;SDS011;6424;48.520;11.228;2023-05-19T07:24:36;8.07;;;5.03;;
12719;SDS011;6424;48.520;11.228;2023-05-19T07:27:16;7.37;;;4.87;;
12719;SDS011;6424;48.520;11.228;2023-05-19T07:29:57;7.80;;;5.17;;
12719;SDS011;6424;48.520;11.228;2023-05-19T07:32:38;9.20;;;5.43;;
12719;SDS011;6424;48.520;11.228;2023-05-19T07:35:19;8.63;;;5.30;;
12719;SDS011;6424;48.520;11.228;2023-05-19T07:38:01;8.03;;;5.37;;
12719;SDS011;6424;48.520;11.228;2023-05-19T07:40:42;9.03;;;5.27;;
12719;SDS011;6424;48.520;11.228;2023-05-19T07:43:23;6.67;;;4.90;;
12719;SDS011;6424;48.520;11.228;2023-05-19T07:45:49;8.93;;;5.00;;
12719;SDS011;6424;48.520;11.228;2023-05-19T07:48:30;9.03;;;5.23;;
12719;SDS011;6424;48.520;11.228;2023-05-19T07:51:11;5.60;;;4.43;;
12719;SDS011;6424;48.520;11.228;2023-05-19T07:53:52;7.87;;;4.83;;
12719;SDS011;6424;48.520;11.228;2023-05-19T07:56:33;6.67;;;4.33;;
12719;SDS011;6424;48.520;11.228;2023-05-19T07:58:59;11.67;;;4.77;;
12719;SDS011;6424;48.520;11.228;2023-05-19T08:01:39;6.83;;;4.33;;
12719;SDS011;6424;48.520;11.228;2023-05-19T08:04:21;5.63;;;4.07;;
12719;SDS011;6424;48.520;11.228;2023-05-19T08:07:02;8.43;;;4.53;;
12719;SDS011;6424;48.520;11.228;2023-05-19T08:09:42;4.80;;;4.13;;
12719;SDS011;6424;48.520;11.228;2023-05-19T08:12:23;5.80;;;4.20;;
12719;SDS011;6424;48.520;11.228;2023-05-19T08:15:04;7.50;;;4.50;;
12719;SDS011;6424;48.520;11.228;2023-05-19T08:17:46;7.93;;;4.50;;
12719;SDS011;6424;48.520;11.228;2023-05-19T08:20:27;5.90;;;3.80;;
12719;SDS011;6424;48.520;11.228;2023-05-19T08:22:53;6.37;;;4.00;;
12719;SDS011;6424;48.520;11.228;2023-05-19T08:25:33;8.20;;;5.17;;
12719;SDS011;6424;48.520;11.228;2023-05-19T08:27:59;5.20;;;3.80;;
12719;SDS011;6424;48.520;11.228;2023-05-19T08:30:40;14.53;;;5.70;;
12719;SDS011;6424;48.520;11.228;2023-05-19T08:33:06;8.33;;;3.83;;
12719;SDS011;6424;48.520;11.228;2023-05-19T08:35:47;8.00;;;5.00;;
12719;SDS011;6424;48.520;11.228;2023-05-19T08:38:28;4.50;;;3.83;;
12719;SDS011;6424;48.520;11.228;2023-05-19T08:41:09;5.43;;;4.43;;
12719;SDS011;6424;48.520;11.228;2023-05-19T08:43:50;5.23;;;4.10;;
12719;SDS011;6424;48.520;11.228;2023-05-19T08:46:30;6.60;;;4.17;;
12719;SDS011;6424;48.520;11.228;2023-05-19T08:49:13;5.10;;;4.03;;
12719;SDS011;6424;48.520;11.228;2023-05-19T08:52:08;5.80;;;5.10;;
12719;SDS011;6424;48.520;11.228;2023-05-19T08:54:54;6.00;;;4.80;;
12719;SDS011;6424;48.520;11.228;2023-05-19T08:57:43;8.27;;;6.13;;
12719;SDS011;6424;48.520;11.228;2023-05-19T09:00:10;6.40;;;5.20;;
12719;SDS011;6424;48.520;11.228;2023-05-19T09:02:52;6.00;;;4.20;;
12719;SDS011;6424;48.520;11.228;2023-05-19T09:05:33;7.17;;;5.23;;
12719;SDS011;6424;48.520;11.228;2023-05-19T09:08:14;5.80;;;4.60;;
12719;SDS011;6424;48.520;11.228;2023-05-19T09:10:55;4.87;;;4.40;;
12719;SDS011;6424;48.520;11.228;2023-05-19T09:13:36;5.03;;;3.87;;
12719;SDS011;6424;48.520;11.228;2023-05-19T09:16:17;4.67;;;3.63;;
12719;SDS011;6424;48.520;11.228;2023-05-19T09:18:58;4.63;;;3.87;;
12719;SDS011;6424;48.520;11.228;2023-05-19T09:21:40;6.57;;;4.27;;
12719;SDS011;6424;48.520;11.228;2023-05-19T09:24:20;4.80;;;4.30;;
12719;SDS011;6424;48.520;11.228;2023-05-19T09:27:05;6.63;;;4.20;;
12719;SDS011;6424;48.520;11.228;2023-05-19T09:29:47;7.10;;;4.10;;
12719;SDS011;6424;48.520;11.228;2023-05-19T09:32:28;4.63;;;3.73;;
12719;SDS011;6424;48.520;11.228;2023-05-19T09:35:09;4.40;;;3.90;;
12719;SDS011;6424;48.520;11.228;2023-05-19T09:37:56;5.47;;;4.10;;
12719;SDS011;6424;48.520;11.228;2023-05-19T09:40:37;5.90;;;4.30;;
12719;SDS011;6424;48.520;11.228;2023-05-19T09:43:18;6.80;;;4.00;;
12719;SDS011;6424;48.520;11.228;2023-05-19T09:46:07;5.93;;;3.90;;
12719;SDS011;6424;48.520;11.228;2023-05-19T09:49:14;4.60;;;3.80;;
12719;SDS011;6424;48.520;11.228;2023-05-19T09:51:58;5.50;;;4.00;;
12719;SDS011;6424;48.520;11.228;2023-05-19T09:54:42;6.70;;;3.83;;
12719;SDS011;6424;48.520;11.228;2023-05-19T09:57:24;5.63;;;3.50;;
12719;SDS011;6424;48.520;11.228;2023-05-19T10:00:09;5.20;;;3.70;;
12719;SDS011;6424;48.520;11.228;2023-05-19T10:02:59;7.33;;;3.80;;
12719;SDS011;6424;48.520;11.228;2023-05-19T10:05:44;7.10;;;5.30;;
12719;SDS011;6424;48.520;11.228;2023-05-19T10:08:26;8.63;;;5.50;;
12719;SDS011;6424;48.520;11.228;2023-05-19T10:11:09;9.17;;;4.77;;
12719;SDS011;6424;48.520;11.228;2023-05-19T10:13:51;8.07;;;4.17;;
12719;SDS011;6424;48.520;11.228;2023-05-19T10:16:31;5.27;;;3.90;;
12719;SDS011;6424;48.520;11.228;2023-05-19T10:19:12;4.37;;;3.73;;
12719;SDS011;6424;48.520;11.228;2023-05-19T10:21:54;5.57;;;3.90;;
12719;SDS011;6424;48.520;11.228;2023-05-19T10:24:36;7.57;;;3.83;;
12719;SDS011;6424;48.520;11.228;2023-05-19T10:27:17;4.53;;;4.10;;
12719;SDS011;6424;48.520;11.228;2023-05-19T10:29:59;6.57;;;3.60;;
12719;SDS011;6424;48.520;11.228;2023-05-19T10:32:46;7.40;;;4.30;;
12719;SDS011;6424;48.520;11.228;2023-05-19T10:47:25;4.67;;;3.93;;
12719;SDS011;6424;48.520;11.228;2023-05-19T10:50:06;5.57;;;3.70;;
12719;SDS011;6424;48.520;11.228;2023-05-19T10:52:51;5.93;;;3.93;;
12719;SDS011;6424;48.520;11.228;2023-05-19T10:55:43;6.23;;;4.20;;
12719;SDS011;6424;48.520;11.228;2023-05-19T11:01:32;9.50;;;3.97;;
12719;SDS011;6424;48.520;11.228;2023-05-19T11:04:14;6.13;;;3.90;;
12719;SDS011;6424;48.520;11.228;2023-05-19T11:06:55;7.30;;;3.87;;
12719;SDS011;6424;48.520;11.228;2023-05-19T11:09:41;6.63;;;3.70;;
12719;SDS011;6424;48.520;11.228;2023-05-19T11:12:22;7.53;;;4.20;;
12719;SDS011;6424;48.520;11.228;2023-05-19T11:15:03;6.40;;;4.50;;
12719;SDS011;6424;48.520;11.228;2023-05-19T11:17:47;5.70;;;4.60;;
12719;SDS011;6424;48.520;11.228;2023-05-19T11:20:29;5.27;;;3.77;;
12719;SDS011;6424;48.520;11.228;2023-05-19T11:23:14;4.03;;;3.63;;
12719;SDS011;6424;48.520;11.228;2023-05-19T11:26:00;6.13;;;4.10;;
12719;SDS011;6424;48.520;11.228;2023-05-19T11:28:41;6.93;;;3.37;;
12719;SDS011;6424;48.520;11.228;2023-05-19T11:31:22;6.40;;;3.53;;
12719;SDS011;6424;48.520;11.228;2023-05-19T11:33:49;5.83;;;3.67;;
12719;SDS011;6424;48.520;11.228;2023-05-19T11:36:30;5.20;;;3.20;;
12719;SDS011;6424;48.520;11.228;2023-05-19T11:39:11;4.83;;;3.17;;
12719;SDS011;6424;48.520;11.228;2023-05-19T11:41:54;4.73;;;3.20;;
12719;SDS011;6424;48.520;11.228;2023-05-19T11:44:35;4.50;;;3.50;;
12719;SDS011;6424;48.520;11.228;2023-05-19T11:47:17;5.43;;;3.90;;
12719;SDS011;6424;48.520;11.228;2023-05-19T11:49:58;3.67;;;3.00;;
12719;SDS011;6424;48.520;11.228;2023-05-19T11:52:43;4.07;;;3.13;;
12719;SDS011;6424;48.520;11.228;2023-05-19T11:55:24;8.13;;;3.30;;
12719;SDS011;6424;48.520;11.228;2023-05-19T11:58:05;6.63;;;3.77;;
12719;SDS011;6424;48.520;11.228;2023-05-19T12:00:46;5.33;;;3.40;;
12719;SDS011;6424;48.520;11.228;2023-05-19T12:03:27;8.47;;;3.40;;
12719;SDS011;6424;48.520;11.228;2023-05-19T12:05:53;5.90;;;3.27;;
12719;SDS011;6424;48.520;11.228;2023-05-19T12:08:34;5.43;;;3.30;;
12719;SDS011;6424;48.520;11.228;2023-05-19T12:11:15;3.50;;;3.20;;
12719;SDS011;6424;48.520;11.228;2023-05-19T12:13:57;3.97;;;3.43;;
12719;SDS011;6424;48.520;11.228;2023-05-19T12:16:38;5.03;;;3.67;;
12719;SDS011;6424;48.520;11.228;2023-05-19T12:19:21;4.50;;;3.60;;
12719;SDS011;6424;48.520;11.228;2023-05-19T12:21:48;4.13;;;3.47;;
12719;SDS011;6424;48.520;11.228;2023-05-19T12:24:29;5.87;;;3.20;;
12719;SDS011;6424;48.520;11.228;2023-05-19T12:29:56;4.10;;;3.10;;
12719;SDS011;6424;48.520;11.228;2023-05-19T12:32:22;4.70;;;3.20;;
12719;SDS011;6424;48.520;11.228;2023-05-19T12:35:04;4.50;;;3.37;;
12719;SDS011;6424;48.520;11.228;2023-05-19T12:37:46;3.50;;;2.97;;
12719;SDS011;6424;48.520;11.228;2023-05-19T12:40:28;5.83;;;3.23;;
12719;SDS011;6424;48.520;11.228;2023-05-19T12:43:21;5.27;;;3.10;;
12719;SDS011;6424;48.520;11.228;2023-05-19T12:46:09;4.33;;;3.23;;
12719;SDS011;6424;48.520;11.228;2023-05-19T12:48:57;5.27;;;2.97;;
12719;SDS011;6424;48.520;11.228;2023-05-19T12:51:40;5.60;;;3.00;;
12719;SDS011;6424;48.520;11.228;2023-05-19T12:54:20;4.07;;;3.17;;
12719;SDS011;6424;48.520;11.228;2023-05-19T12:56:50;3.67;;;2.83;;
12719;SDS011;6424;48.520;11.228;2023-05-19T12:59:31;3.60;;;3.00;;
12719;SDS011;6424;48.520;11.228;2023-05-19T13:02:14;4.40;;;3.00;;
12719;SDS011;6424;48.520;11.228;2023-05-19T13:04:54;4.03;;;3.03;;
12719;SDS011;6424;48.520;11.228;2023-05-19T13:07:37;4.73;;;2.90;;
12719;SDS011;6424;48.520;11.228;2023-05-19T13:10:18;4.60;;;2.57;;
12719;SDS011;6424;48.520;11.228;2023-05-19T13:13:00;4.47;;;2.60;;
12719;SDS011;6424;48.520;11.228;2023-05-19T13:15:42;5.37;;;3.23;;
12719;SDS011;6424;48.520;11.228;2023-05-19T13:18:24;4.47;;;2.77;;
12719;SDS011;6424;48.520;11.228;2023-05-19T13:21:06;4.10;;;2.93;;
12719;SDS011;6424;48.520;11.228;2023-05-19T13:23:47;4.33;;;2.50;;
12719;SDS011;6424;48.520;11.228;2023-05-19T13:26:13;4.50;;;2.77;;
12719;SDS011;6424;48.520;11.228;2023-05-19T13:28:53;5.10;;;2.83;;
12719;SDS011;6424;48.520;11.228;2023-05-19T13:31:34;4.43;;;2.87;;
12719;SDS011;6424;48.520;11.228;2023-05-19T13:34:15;3.77;;;2.70;;
12719;SDS011;6424;48.520;11.228;2023-05-19T13:36:58;2.87;;;2.37;;
12719;SDS011;6424;48.520;11.228;2023-05-19T13:39:39;3.93;;;2.40;;
12719;SDS011;6424;48.520;11.228;2023-05-19T13:42:05;4.43;;;2.60;;
12719;SDS011;6424;48.520;11.228;2023-05-19T13:44:46;3.13;;;2.50;;
12719;SDS011;6424;48.520;11.228;2023-05-19T13:47:27;3.93;;;2.50;;
12719;SDS011;6424;48.520;11.228;2023-05-19T13:50:08;4.53;;;3.00;;
12719;SDS011;6424;48.520;11.228;2023-05-19T13:52:34;6.63;;;3.13;;
12719;SDS011;6424;48.520;11.228;2023-05-19T13:55:15;3.77;;;2.70;;
12719;SDS011;6424;48.520;11.228;2023-05-19T13:57:56;5.93;;;3.00;;
12719;SDS011;6424;48.520;11.228;2023-05-19T14:00:37;5.00;;;3.03;;
12719;SDS011;6424;48.520;11.228;2023-05-19T14:03:18;3.97;;;2.80;;
12719;SDS011;6424;48.520;11.228;2023-05-19T14:05:59;3.93;;;3.00;;
12719;SDS011;6424;48.520;11.228;2023-05-19T14:08:39;6.90;;;2.97;;
12719;SDS011;6424;48.520;11.228;2023-05-19T14:11:21;3.80;;;2.67;;
12719;SDS011;6424;48.520;11.228;2023-05-19T14:13:47;2.80;;;2.37;;
12719;SDS011;6424;48.520;11.228;2023-05-19T14:16:29;2.97;;;2.33;;
12719;SDS011;6424;48.520;11.228;2023-05-19T14:19:10;4.20;;;2.73;;
12719;SDS011;6424;48.520;11.228;2023-05-19T14:21:51;4.70;;;2.33;;
12719;SDS011;6424;48.520;11.228;2023-05-19T14:24:17;6.53;;;2.87;;
12719;SDS011;6424;48.520;11.228;2023-05-19T14:26:59;3.73;;;2.57;;
12719;SDS011;6424;48.520;11.228;2023-05-19T14:29:25;5.90;;;2.97;;
12719;SDS011;6424;48.520;11.228;2023-05-19T14:32:07;8.90;;;2.60;;
12719;SDS011;6424;48.520;11.228;2023-05-19T14:34:48;4.80;;;2.60;;
12719;SDS011;6424;48.520;11.228;2023-05-19T14:37:31;2.73;;;2.50;;
12719;SDS011;6424;48.520;11.228;2023-05-19T14:40:12;4.63;;;2.20;;
12719;SDS011;6424;48.520;11.228;2023-05-19T14:42:53;4.70;;;2.60;;
12719;SDS011;6424;48.520;11.228;2023-05-19T14:45:34;4.20;;;2.80;;
12719;SDS011;6424;48.520;11.228;2023-05-19T14:48:15;3.57;;;2.37;;
12719;SDS011;6424;48.520;11.228;2023-05-19T14:50:56;2.50;;;2.00;;
12719;SDS011;6424;48.520;11.228;2023-05-19T14:53:38;4.17;;;2.80;;
12719;SDS011;6424;48.520;11.228;2023-05-19T14:56:19;3.97;;;2.40;;
12719;SDS011;6424;48.520;11.228;2023-05-19T14:59:01;4.27;;;2.43;;
12719;SDS011;6424;48.520;11.228;2023-05-19T15:13:53;3.37;;;2.40;;
12719;SDS011;6424;48.520;11.228;2023-05-19T15:16:19;3.37;;;2.30;;
12719;SDS011;6424;48.520;11.228;2023-05-19T15:19:00;3.23;;;2.37;;
12719;SDS011;6424;48.520;11.228;2023-05-19T15:21:41;3.43;;;2.70;;
12719;SDS011;6424;48.520;11.228;2023-05-19T15:24:23;4.77;;;2.70;;
12719;SDS011;6424;48.520;11.228;2023-05-19T15:27:04;3.77;;;2.13;;
12719;SDS011;6424;48.520;11.228;2023-05-19T15:29:45;4.17;;;2.37;;
12719;SDS011;6424;48.520;11.228;2023-05-19T15:32:25;3.97;;;2.30;;
12719;SDS011;6424;48.520;11.228;2023-05-19T15:35:06;4.03;;;2.20;;
12719;SDS011;6424;48.520;11.228;2023-05-19T15:37:47;2.83;;;2.40;;
12719;SDS011;6424;48.520;11.228;2023-05-19T15:40:13;3.77;;;2.17;;
12719;SDS011;6424;48.520;11.228;2023-05-19T15:42:54;3.40;;;2.20;;
12719;SDS011;6424;48.520;11.228;2023-05-19T15:45:35;4.53;;;2.50;;
12719;SDS011;6424;48.520;11.228;2023-05-19T15:48:16;5.20;;;2.43;;
12719;SDS011;6424;48.520;11.228;2023-05-19T15:50:41;2.83;;;2.27;;
12719;SDS011;6424;48.520;11.228;2023-05-19T15:53:22;3.17;;;2.20;;
12719;SDS011;6424;48.520;11.228;2023-05-19T15:56:03;4.83;;;3.03;;
12719;SDS011;6424;48.520;11.228;2023-05-19T15:58:44;5.37;;;2.33;;
12719;SDS011;6424;48.520;11.228;2023-05-19T16:01:25;5.00;;;3.07;;
12719;SDS011;6424;48.520;11.228;2023-05-19T16:04:06;6.73;;;2.60;;
12719;SDS011;6424;48.520;11.228;2023-05-19T16:06:47;4.37;;;2.43;;
12719;SDS011;6424;48.520;11.228;2023-05-19T16:09:28;3.37;;;2.17;;
12719;SDS011;6424;48.520;11.228;2023-05-19T16:12:08;4.30;;;2.40;;
12719;SDS011;6424;48.520;11.228;2023-05-19T16:14:49;4.67;;;2.63;;
12719;SDS011;6424;48.520;11.228;2023-05-19T16:17:15;2.60;;;2.27;;
12719;SDS011;6424;48.520;11.228;2023-05-19T16:19:57;4.17;;;2.30;;
12719;SDS011;6424;48.520;11.228;2023-05-19T16:22:37;5.80;;;2.50;;
12719;SDS011;6424;48.520;11.228;2023-05-19T16:25:18;4.70;;;2.80;;
12719;SDS011;6424;48.520;11.228;2023-05-19T16:27:59;3.23;;;2.33;;
12719;SDS011;6424;48.520;11.228;2023-05-19T16:30:40;3.37;;;2.43;;
12719;SDS011;6424;48.520;11.228;2023-05-19T16:33:21;4.60;;;2.53;;
12719;SDS011;6424;48.520;11.228;2023-05-19T16:36:02;3.67;;;2.47;;
12719;SDS011;6424;48.520;11.228;2023-05-19T16:38:44;3.37;;;2.40;;